createdAt,value
2022-09-06T00:00:18.003Z,101732.97
2022-09-06T00:02:45.313Z,101736.97
2022-09-06T00:05:13.143Z,101739.72
2022-09-06T00:07:40.424Z,101738.88
2022-09-06T00:10:08.227Z,101728.75
2022-09-06T00:12:35.277Z,101733.59
2022-09-06T00:15:03.025Z,101730.16
2022-09-06T00:17:29.700Z,101727.41
2022-09-06T00:19:56.347Z,101735.94
2022-09-06T00:22:23.069Z,101726.47
2022-09-06T00:24:49.720Z,101734.75
2022-09-06T00:27:16.596Z,101731.69
2022-09-06T00:29:43.276Z,101731.03
2022-09-06T00:32:10.128Z,101734.53
2022-09-06T00:34:36.749Z,101726.06
2022-09-06T00:37:03.557Z,101727.09
2022-09-06T00:39:30.269Z,101723.72
2022-09-06T00:41:57.028Z,101720.56
2022-09-06T00:44:24.015Z,101720.88
2022-09-06T00:46:53.271Z,101729.47
2022-09-06T00:49:29.637Z,101723.69
2022-09-06T00:52:02.918Z,101714.13
2022-09-06T00:54:30.216Z,101722.88
2022-09-06T00:56:58.468Z,101723.44
2022-09-06T00:59:27.485Z,101726.19
2022-09-06T01:01:54.270Z,101729.78
2022-09-06T01:04:21.735Z,101722.22
2022-09-06T01:07:26.311Z,101735.31
2022-09-06T01:10:14.379Z,101723.13
2022-09-06T01:12:46.928Z,101723.69
2022-09-06T01:15:13.515Z,101718.00
2022-09-06T01:17:58.809Z,101720.13
2022-09-06T01:20:28.351Z,101727.50
2022-09-06T01:23:17.052Z,101726.84
2022-09-06T01:26:02.553Z,101715.34
2022-09-06T01:28:32.309Z,101723.84
2022-09-06T01:31:31.847Z,101720.47
2022-09-06T01:34:07.767Z,101719.59
2022-09-06T01:37:08.511Z,101714.47
2022-09-06T01:39:37.322Z,101712.06
2022-09-06T01:42:10.190Z,101712.16
2022-09-06T01:44:40.905Z,101712.69
2022-09-06T01:47:28.727Z,101711.19
2022-09-06T01:50:40.308Z,101713.84
2022-09-06T01:53:37.389Z,101721.97
2022-09-06T01:56:06.840Z,101709.44
2022-09-06T01:58:55.304Z,101718.50
2022-09-06T02:01:28.380Z,101716.88
2022-09-06T02:04:03.644Z,101713.50
2022-09-06T02:06:34.670Z,101707.97
2022-09-06T02:09:06.486Z,101705.22
2022-09-06T02:11:40.070Z,101697.59
2022-09-06T02:14:13.644Z,101703.25
2022-09-06T02:16:44.841Z,101700.97
2022-09-06T02:19:35.403Z,101695.47
2022-09-06T02:22:06.544Z,101690.59
2022-09-06T02:24:37.244Z,101699.25
2022-09-06T02:27:04.127Z,101698.44
2022-09-06T02:29:31.016Z,101695.25
2022-09-06T02:32:21.140Z,101696.53
2022-09-06T02:34:50.581Z,101700.22
2022-09-06T02:37:18.236Z,101692.13
2022-09-06T02:39:45.024Z,101697.69
2022-09-06T02:42:14.016Z,101690.59
2022-09-06T02:44:40.653Z,101699.50
2022-09-06T02:47:07.401Z,101693.25
2022-09-06T02:49:34.607Z,101703.69
2022-09-06T02:52:01.305Z,101685.91
2022-09-06T02:54:27.939Z,101688.31
2022-09-06T02:56:54.680Z,101688.94
2022-09-06T02:59:21.290Z,101695.47
2022-09-06T03:01:47.971Z,101696.31
2022-09-06T03:04:14.604Z,101701.16
2022-09-06T03:06:41.296Z,101697.31
2022-09-06T03:09:10.463Z,101699.88
2022-09-06T03:11:38.136Z,101693.16
2022-09-06T03:14:04.908Z,101691.88
2022-09-06T03:16:31.725Z,101695.81
2022-09-06T03:18:58.461Z,101694.31
2022-09-06T03:21:25.115Z,101693.16
2022-09-06T03:23:52.500Z,101696.53
2022-09-06T03:26:19.165Z,101693.34
2022-09-06T03:28:45.999Z,101687.47
2022-09-06T03:31:13.055Z,101688.72
2022-09-06T03:33:39.897Z,101689.34
2022-09-06T03:36:06.800Z,101686.19
2022-09-06T03:38:33.445Z,101683.53
2022-09-06T03:41:00.115Z,101678.38
2022-09-06T03:43:27.666Z,101679.44
2022-09-06T03:45:59.665Z,101676.38
2022-09-06T03:48:29.437Z,101681.34
2022-09-06T03:50:58.099Z,101687.00
2022-09-06T03:53:26.791Z,101674.56
2022-09-06T03:55:54.828Z,101677.53
2022-09-06T03:58:23.870Z,101677.47
2022-09-06T04:01:00.259Z,101676.75
2022-09-06T04:03:26.980Z,101673.28
2022-09-06T04:05:53.584Z,101679.06
2022-09-06T04:08:20.272Z,101674.00
2022-09-06T04:10:51.011Z,101671.78
2022-09-06T04:13:18.154Z,101680.97
2022-09-06T04:15:48.063Z,101676.75
2022-09-06T04:18:15.201Z,101674.19
2022-09-06T04:20:42.220Z,101674.09
2022-09-06T04:23:08.983Z,101669.38
2022-09-06T04:25:35.623Z,101667.03
2022-09-06T04:28:02.607Z,101666.19
2022-09-06T04:30:29.388Z,101659.56
2022-09-06T04:32:56.017Z,101657.00
2022-09-06T04:35:23.160Z,101645.81
2022-09-06T04:37:49.800Z,101651.00
2022-09-06T04:40:16.455Z,101639.59
2022-09-06T04:42:43.059Z,101645.63
2022-09-06T04:45:10.243Z,101647.44
2022-09-06T04:47:36.909Z,101647.94
2022-09-06T04:50:03.803Z,101643.13
2022-09-06T04:52:30.493Z,101644.00
2022-09-06T04:54:57.223Z,101645.13
2022-09-06T04:57:23.812Z,101645.97
2022-09-06T04:59:50.444Z,101650.84
2022-09-06T05:02:17.164Z,101643.56
2022-09-06T05:04:43.788Z,101641.38
2022-09-06T05:07:10.443Z,101646.53
2022-09-06T05:09:37.151Z,101636.94
2022-09-06T05:12:04.172Z,101634.00
2022-09-06T05:14:31.120Z,101629.91
2022-09-06T05:16:57.880Z,101633.81
2022-09-06T05:19:24.543Z,101632.81
2022-09-06T05:21:51.833Z,101640.88
2022-09-06T05:24:18.846Z,101635.25
2022-09-06T05:26:45.521Z,101636.84
2022-09-06T05:29:12.250Z,101643.06
2022-09-06T05:31:38.923Z,101639.25
2022-09-06T05:34:05.707Z,101643.91
2022-09-06T05:36:32.520Z,101642.63
2022-09-06T05:38:59.716Z,101641.03
2022-09-06T05:41:26.806Z,101644.19
2022-09-06T05:43:53.688Z,101648.38
2022-09-06T05:46:20.960Z,101650.66
2022-09-06T05:48:55.378Z,101650.84
2022-09-06T05:51:22.082Z,101653.97
2022-09-06T05:53:48.873Z,101649.09
2022-09-06T05:56:16.684Z,101655.72
2022-09-06T05:58:43.505Z,101638.66
2022-09-06T06:01:20.350Z,101636.00
2022-09-06T06:03:52.654Z,101624.28
2022-09-06T06:06:20.385Z,101613.44
2022-09-06T06:08:47.241Z,101615.97
2022-09-06T06:11:14.599Z,101619.66
2022-09-06T06:13:41.856Z,101631.44
2022-09-06T06:16:14.268Z,101627.97
2022-09-06T06:18:41.299Z,101632.09
2022-09-06T06:21:08.724Z,101637.03
2022-09-06T06:23:35.375Z,101639.31
2022-09-06T06:26:02.052Z,101634.16
2022-09-06T06:28:29.057Z,101638.75
2022-09-06T06:30:55.779Z,101641.38
2022-09-06T06:33:22.444Z,101637.69
2022-09-06T06:36:01.406Z,101650.41
2022-09-06T06:38:36.068Z,101643.69
2022-09-06T06:41:06.641Z,101649.72
2022-09-06T06:43:37.707Z,101641.16
2022-09-06T06:46:12.463Z,101645.03
2022-09-06T06:48:41.376Z,101638.50
2022-09-06T06:51:11.399Z,101636.72
2022-09-06T06:53:38.139Z,101633.47
2022-09-06T06:56:21.129Z,101633.09
2022-09-06T06:58:50.000Z,101611.81
2022-09-06T07:01:18.241Z,101617.16
2022-09-06T07:03:44.952Z,101616.06
2022-09-06T07:06:12.315Z,101625.09
2022-09-06T07:08:40.632Z,101618.97
2022-09-06T07:11:09.973Z,101626.19
2022-09-06T07:13:36.960Z,101628.19
2022-09-06T07:16:09.449Z,101623.81
2022-09-06T07:18:37.773Z,101630.88
2022-09-06T07:24:07.207Z,101632.28
2022-09-06T07:26:35.385Z,101644.38
2022-09-06T07:29:04.544Z,101642.28
2022-09-06T07:34:20.690Z,101639.13
2022-09-06T07:36:48.195Z,101633.28
2022-09-06T07:39:14.817Z,101625.03
2022-09-06T07:41:43.089Z,101623.81
2022-09-06T07:44:10.012Z,101618.34
2022-09-06T07:46:36.731Z,101621.13
2022-09-06T07:49:07.377Z,101626.97
2022-09-06T07:51:34.250Z,101625.00
2022-09-06T07:56:47.795Z,101623.03
2022-09-06T07:59:14.570Z,101617.00
2022-09-06T08:01:42.108Z,101617.38
2022-09-06T08:04:12.782Z,101616.44
2022-09-06T08:09:37.541Z,101639.25
2022-09-06T08:12:07.476Z,101638.63
2022-09-06T08:14:34.954Z,101636.22
2022-09-06T08:17:02.459Z,101634.41
2022-09-06T08:19:29.074Z,101633.59
2022-09-06T08:21:56.188Z,101640.06
2022-09-06T08:24:22.907Z,101644.97
2022-09-06T08:26:49.886Z,101652.06
2022-09-06T08:29:16.547Z,101641.47
2022-09-06T08:31:44.784Z,101639.47
2022-09-06T08:34:15.342Z,101638.13
2022-09-06T08:36:42.733Z,101626.63
2022-09-06T08:39:10.175Z,101627.63
2022-09-06T08:41:56.344Z,101628.19
2022-09-06T08:47:20.999Z,101624.19
2022-09-06T08:49:54.749Z,101624.19
2022-09-06T08:52:39.319Z,101618.09
2022-09-06T08:55:35.453Z,101613.47
2022-09-06T08:58:24.997Z,101607.53
2022-09-06T09:00:58.744Z,101602.13
2022-09-06T09:03:30.353Z,101614.19
2022-09-06T09:05:57.610Z,101609.16
2022-09-06T09:08:33.146Z,101610.59
2022-09-06T09:11:04.051Z,101620.81
2022-09-06T09:13:48.912Z,101604.84
2022-09-06T09:16:15.926Z,101609.19
2022-09-06T09:18:46.242Z,101608.41
2022-09-06T09:21:15.600Z,101598.78
2022-09-06T09:23:42.548Z,101594.88
2022-09-06T09:26:15.247Z,101593.81
2022-09-06T09:29:06.151Z,101580.94
2022-09-06T09:31:40.679Z,101582.09
2022-09-06T09:34:13.143Z,101582.16
2022-09-06T09:36:40.854Z,101582.16
2022-09-06T09:39:11.641Z,101578.56
2022-09-06T09:41:43.105Z,101585.53
2022-09-06T09:44:19.952Z,101569.63
2022-09-06T09:46:46.773Z,101564.75
2022-09-06T09:49:28.882Z,101555.03
2022-09-06T09:52:16.855Z,101558.50
2022-09-06T09:54:46.317Z,101551.00
2022-09-06T09:57:19.882Z,101548.75
2022-09-06T09:59:57.410Z,101551.16
2022-09-06T10:02:36.417Z,101550.19
2022-09-06T10:05:09.835Z,101551.63
2022-09-06T10:07:52.955Z,101555.59
2022-09-06T10:10:28.618Z,101545.00
2022-09-06T10:13:08.802Z,101541.75
2022-09-06T10:15:38.632Z,101546.53
2022-09-06T10:18:05.582Z,101546.84
2022-09-06T10:20:48.207Z,101540.06
2022-09-06T10:26:52.302Z,101544.31
2022-09-06T10:29:38.970Z,101525.69
2022-09-06T10:32:24.990Z,101532.47
2022-09-06T10:35:14.640Z,101522.56
2022-09-06T10:38:32.399Z,101519.75
2022-09-06T10:41:33.564Z,101522.06
2022-09-06T10:44:35.469Z,101520.06
2022-09-06T10:47:14.188Z,101522.88
2022-09-06T10:49:54.654Z,101523.09
2022-09-06T10:52:33.813Z,101514.84
2022-09-06T10:55:05.182Z,101527.06
2022-09-06T11:00:41.995Z,101515.53
2022-09-06T11:06:11.417Z,101514.84
2022-09-06T11:08:57.754Z,101511.78
2022-09-06T11:11:35.667Z,101505.81
2022-09-06T11:14:09.639Z,101504.13
2022-09-06T11:16:49.539Z,101509.81
2022-09-06T11:19:22.986Z,101502.09
2022-09-06T11:22:03.693Z,101501.59
2022-09-06T11:24:56.252Z,101496.06
2022-09-06T11:27:25.470Z,101494.19
2022-09-06T11:29:56.610Z,101497.84
2022-09-06T11:32:48.922Z,101497.31
2022-09-06T11:35:36.588Z,101486.75
2022-09-06T11:38:12.036Z,101485.72
2022-09-06T11:40:42.550Z,101492.06
2022-09-06T11:43:12.739Z,101485.00
2022-09-06T11:45:51.219Z,101501.16
2022-09-06T11:48:23.718Z,101487.69
2022-09-06T11:50:59.171Z,101487.47
2022-09-06T11:53:26.552Z,101485.47
2022-09-06T11:56:02.218Z,101492.66
2022-09-06T11:58:38.385Z,101484.66
2022-09-06T12:01:16.484Z,101477.31
2022-09-06T12:06:35.504Z,101486.81
2022-09-06T12:09:02.921Z,101481.78
2022-09-06T12:11:45.142Z,101485.78
2022-09-06T12:14:29.708Z,101472.44
2022-09-06T12:16:59.260Z,101476.06
2022-09-06T12:19:49.328Z,101475.75
2022-09-06T12:22:27.896Z,101465.22
2022-09-06T12:24:56.996Z,101449.75
2022-09-06T12:27:27.019Z,101451.09
2022-09-06T12:29:59.361Z,101445.09
2022-09-06T12:32:36.077Z,101455.44
2022-09-06T12:38:04.485Z,101453.44
2022-09-06T12:40:58.474Z,101456.38
2022-09-06T12:43:26.022Z,101453.56
2022-09-06T12:45:53.061Z,101447.97
2022-09-06T12:48:25.717Z,101448.25
2022-09-06T12:51:09.330Z,101457.63
2022-09-06T12:53:35.982Z,101447.81
2022-09-06T12:56:14.606Z,101446.16
2022-09-06T12:58:41.289Z,101442.84
2022-09-06T13:01:26.177Z,101431.50
2022-09-06T13:04:45.648Z,101433.13
2022-09-06T13:07:17.681Z,101423.88
2022-09-06T13:09:52.057Z,101432.97
2022-09-06T13:12:40.497Z,101417.41
2022-09-06T13:15:07.186Z,101418.06
2022-09-06T13:17:34.617Z,101418.66
2022-09-06T13:20:12.831Z,101407.28
2022-09-06T13:22:50.853Z,101411.78
2022-09-06T13:25:21.025Z,101412.25
2022-09-06T13:27:57.700Z,101397.50
2022-09-06T13:30:38.623Z,101402.00
2022-09-06T13:33:07.871Z,101409.75
2022-09-06T13:35:37.949Z,101408.13
2022-09-06T13:38:32.181Z,101402.03
2022-09-06T13:41:12.578Z,101413.19
2022-09-06T13:43:46.205Z,101412.31
2022-09-06T13:46:13.185Z,101412.53
2022-09-06T13:48:40.424Z,101416.13
2022-09-06T13:51:09.718Z,101406.28
2022-09-06T13:53:36.481Z,101404.75
2022-09-06T13:56:03.615Z,101410.16
2022-09-06T13:58:30.628Z,101415.97
2022-09-06T14:00:58.572Z,101405.53
2022-09-06T14:03:29.501Z,101409.63
2022-09-06T14:05:56.166Z,101408.47
2022-09-06T14:08:23.191Z,101400.00
2022-09-06T14:10:51.407Z,101401.47
2022-09-06T14:15:57.327Z,101397.63
2022-09-06T14:18:24.059Z,101399.31
2022-09-06T14:20:56.172Z,101391.72
2022-09-06T14:23:23.547Z,101387.81
2022-09-06T14:25:55.081Z,101386.44
2022-09-06T14:28:24.576Z,101388.78
2022-09-06T14:30:52.125Z,101390.56
2022-09-06T14:33:21.126Z,101390.59
2022-09-06T14:35:48.567Z,101378.34
2022-09-06T14:38:15.432Z,101391.38
2022-09-06T14:40:44.791Z,101386.84
2022-09-06T14:43:11.615Z,101386.19
2022-09-06T14:45:38.396Z,101390.94
2022-09-06T14:48:05.688Z,101384.84
2022-09-06T14:50:32.568Z,101385.88
2022-09-06T14:52:59.360Z,101376.69
2022-09-06T14:55:28.208Z,101374.72
2022-09-06T14:57:55.407Z,101366.84
2022-09-06T15:00:22.764Z,101371.22
2022-09-06T15:02:49.723Z,101369.59
2022-09-06T15:05:16.577Z,101364.91
2022-09-06T15:07:43.412Z,101357.38
2022-09-06T15:10:10.366Z,101358.41
2022-09-06T15:12:37.583Z,101363.41
2022-09-06T15:15:05.495Z,101352.09
2022-09-06T15:17:34.287Z,101365.94
2022-09-06T15:20:01.191Z,101357.72
2022-09-06T15:22:28.040Z,101357.59
2022-09-06T15:24:55.685Z,101357.56
2022-09-06T15:27:23.332Z,101346.69
2022-09-06T15:29:50.033Z,101341.72
2022-09-06T15:32:16.725Z,101339.41
2022-09-06T15:34:43.508Z,101336.75
2022-09-06T15:37:10.518Z,101338.09
2022-09-06T15:39:37.221Z,101331.06
2022-09-06T15:42:04.152Z,101329.88
2022-09-06T15:44:30.861Z,101333.25
2022-09-06T15:46:59.177Z,101332.91
2022-09-06T15:49:29.239Z,101334.19
2022-09-06T15:52:01.543Z,101334.47
2022-09-06T15:54:47.539Z,101333.34
2022-09-06T15:57:16.629Z,101328.31
2022-09-06T15:59:44.100Z,101324.47
2022-09-06T16:02:11.393Z,101328.47
2022-09-06T16:04:38.183Z,101332.00
2022-09-06T16:07:05.900Z,101322.63
2022-09-06T16:09:32.572Z,101318.59
2022-09-06T16:11:59.276Z,101318.91
2022-09-06T16:14:26.116Z,101306.00
2022-09-06T16:16:54.854Z,101305.06
2022-09-06T16:19:22.015Z,101311.44
2022-09-06T16:21:49.269Z,101313.75
2022-09-06T16:24:18.241Z,101306.25
2022-09-06T16:26:46.660Z,101309.81
2022-09-06T16:29:14.798Z,101309.22
2022-09-06T16:31:43.050Z,101303.22
2022-09-06T16:34:11.841Z,101310.41
2022-09-06T16:36:39.237Z,101310.81
2022-09-06T16:39:07.410Z,101322.31
2022-09-06T16:41:43.850Z,101320.63
2022-09-06T16:44:16.865Z,101316.91
2022-09-06T16:46:49.350Z,101319.75
2022-09-06T16:49:19.304Z,101320.88
2022-09-06T16:51:47.951Z,101319.97
2022-09-06T16:54:15.580Z,101312.94
2022-09-06T16:56:42.688Z,101309.59
2022-09-06T16:59:10.863Z,101292.16
2022-09-06T17:01:41.584Z,101302.38
2022-09-06T17:04:09.707Z,101298.59
2022-09-06T17:06:42.284Z,101292.91
2022-09-06T17:09:08.965Z,101285.72
2022-09-06T17:11:37.840Z,101294.28
2022-09-06T17:14:04.519Z,101289.19
2022-09-06T17:16:50.117Z,101297.56
2022-09-06T17:19:16.884Z,101291.00
2022-09-06T17:21:43.815Z,101286.53
2022-09-06T17:24:10.762Z,101290.59
2022-09-06T17:26:39.303Z,101290.47
2022-09-06T17:29:07.216Z,101282.47
2022-09-06T17:31:34.511Z,101282.63
2022-09-06T17:34:01.833Z,101291.31
2022-09-06T17:36:31.225Z,101298.00
2022-09-06T17:39:09.835Z,101291.84
2022-09-06T17:41:37.857Z,101293.25
2022-09-06T17:44:06.435Z,101296.88
2022-09-06T17:46:33.516Z,101297.56
2022-09-06T17:49:00.448Z,101300.19
2022-09-06T17:51:27.300Z,101306.91
2022-09-06T17:53:54.289Z,101312.47
2022-09-06T17:56:21.713Z,101317.50
2022-09-06T17:58:56.229Z,101304.88
2022-09-06T18:01:24.544Z,101311.41
2022-09-06T18:03:52.086Z,101311.94
2022-09-06T18:06:22.761Z,101309.91
2022-09-06T18:08:52.412Z,101315.06
2022-09-06T18:11:26.386Z,101328.38
2022-09-06T18:14:15.981Z,101324.19
2022-09-06T18:16:45.363Z,101321.25
2022-09-06T18:19:12.405Z,101323.56
2022-09-06T18:21:41.058Z,101324.34
2022-09-06T18:24:09.471Z,101321.53
2022-09-06T18:26:37.424Z,101321.59
2022-09-06T18:29:07.113Z,101324.50
2022-09-06T18:31:33.948Z,101325.31
2022-09-06T18:34:00.735Z,101319.16
2022-09-06T18:36:32.056Z,101318.06
2022-09-06T18:39:02.883Z,101318.88
2022-09-06T18:41:48.248Z,101316.28
2022-09-06T18:44:15.224Z,101314.38
2022-09-06T18:46:42.250Z,101318.50
2022-09-06T18:49:09.003Z,101314.16
2022-09-06T18:51:39.297Z,101316.22
2022-09-06T18:54:06.880Z,101322.28
2022-09-06T18:56:33.612Z,101319.03
2022-09-06T18:59:02.142Z,101313.78
2022-09-06T19:01:30.407Z,101319.03
2022-09-06T19:03:58.563Z,101321.28
2022-09-06T19:06:26.680Z,101320.31
2022-09-06T19:08:53.966Z,101325.13
2022-09-06T19:11:21.838Z,101322.22
2022-09-06T19:13:52.088Z,101322.06
2022-09-06T19:16:20.071Z,101322.28
2022-09-06T19:18:46.905Z,101317.28
2022-09-06T19:21:17.417Z,101321.38
2022-09-06T19:23:47.021Z,101324.25
2022-09-06T19:26:20.467Z,101314.53
2022-09-06T19:28:49.852Z,101325.56
2022-09-06T19:31:17.035Z,101315.66
2022-09-06T19:33:45.621Z,101310.97
2022-09-06T19:36:13.417Z,101303.41
2022-09-06T19:39:01.579Z,101310.88
2022-09-06T19:41:29.023Z,101303.72
2022-09-06T19:43:57.404Z,101313.59
2022-09-06T19:46:25.340Z,101308.31
2022-09-06T19:48:56.075Z,101319.78
2022-09-06T19:51:23.676Z,101318.00
2022-09-06T19:53:53.298Z,101319.66
2022-09-06T19:56:31.801Z,101316.94
2022-09-06T19:59:03.820Z,101317.63
2022-09-06T20:01:32.883Z,101313.75
2022-09-06T20:04:02.504Z,101312.06
2022-09-06T20:06:29.643Z,101308.09
2022-09-06T20:08:58.240Z,101307.94
2022-09-06T20:11:27.462Z,101308.63
2022-09-06T20:13:54.293Z,101310.41
2022-09-06T20:16:21.824Z,101310.13
2022-09-06T20:18:49.139Z,101301.06
2022-09-06T20:21:17.788Z,101305.38
2022-09-06T20:23:52.304Z,101309.38
2022-09-06T20:26:19.707Z,101305.56
2022-09-06T20:28:47.522Z,101300.97
2022-09-06T20:31:16.646Z,101297.34
2022-09-06T20:33:47.163Z,101300.88
2022-09-06T20:36:16.947Z,101289.56
2022-09-06T20:38:44.785Z,101293.44
2022-09-06T20:41:14.400Z,101292.16
2022-09-06T20:43:42.586Z,101276.38
2022-09-06T20:46:14.684Z,101282.13
2022-09-06T20:48:44.881Z,101281.13
2022-09-06T20:51:15.971Z,101276.53
2022-09-06T20:53:42.883Z,101274.75
2022-09-06T20:56:21.869Z,101264.53
2022-09-06T20:58:50.576Z,101269.88
2022-09-06T21:01:22.732Z,101264.53
2022-09-06T21:03:52.221Z,101261.63
2022-09-06T21:06:20.434Z,101257.97
2022-09-06T21:08:48.187Z,101255.75
2022-09-06T21:11:15.086Z,101247.94
2022-09-06T21:13:42.075Z,101254.00
2022-09-06T21:16:09.063Z,101256.25
2022-09-06T21:18:36.405Z,101260.28
2022-09-06T21:21:06.377Z,101254.16
2022-09-06T21:23:35.712Z,101252.06
2022-09-06T21:26:05.716Z,101254.19
2022-09-06T21:28:35.136Z,101248.56
2022-09-06T21:31:11.911Z,101252.78
2022-09-06T21:33:41.074Z,101246.78
2022-09-06T21:36:13.112Z,101245.38
2022-09-06T21:38:42.492Z,101238.97
2022-09-06T21:41:10.187Z,101232.25
2022-09-06T21:43:37.104Z,101241.84
2022-09-06T21:46:08.929Z,101237.44
2022-09-06T21:48:38.997Z,101231.81
2022-09-06T21:51:16.079Z,101236.75
2022-09-06T21:53:45.144Z,101235.91
2022-09-06T21:56:12.313Z,101228.47
2022-09-06T21:58:39.465Z,101224.47
2022-09-06T22:01:07.040Z,101224.16
2022-09-06T22:03:36.834Z,101219.41
2022-09-06T22:06:10.462Z,101212.75
2022-09-06T22:08:37.452Z,101213.69
2022-09-06T22:11:13.151Z,101204.78
2022-09-06T22:13:40.532Z,101206.59
2022-09-06T22:16:08.369Z,101207.88
2022-09-06T22:18:36.236Z,101208.53
2022-09-06T22:21:06.481Z,101210.50
2022-09-06T22:23:34.072Z,101199.75
2022-09-06T22:26:09.172Z,101206.88
2022-09-06T22:28:36.652Z,101191.38
2022-09-06T22:31:04.061Z,101190.16
2022-09-06T22:33:30.975Z,101188.72
2022-09-06T22:35:59.722Z,101188.84
2022-09-06T22:38:27.401Z,101182.88
2022-09-06T22:40:54.590Z,101190.25
2022-09-06T22:43:21.254Z,101192.59
2022-09-06T22:45:51.817Z,101191.09
2022-09-06T22:48:19.498Z,101192.19
2022-09-06T22:50:46.560Z,101198.59
2022-09-06T22:53:13.320Z,101178.63
2022-09-06T22:55:40.298Z,101182.53
2022-09-06T22:58:07.044Z,101170.84
2022-09-06T23:00:36.269Z,101170.72
2022-09-06T23:03:03.265Z,101179.63
2022-09-06T23:05:31.490Z,101177.97
2022-09-06T23:08:00.304Z,101173.34
2022-09-06T23:10:31.062Z,101171.78
2022-09-06T23:12:58.723Z,101176.25
2022-09-06T23:15:25.642Z,101176.66
2022-09-06T23:17:52.657Z,101178.78
2022-09-06T23:20:19.409Z,101173.19
2022-09-06T23:22:47.263Z,101175.53
2022-09-06T23:25:14.164Z,101175.25
2022-09-06T23:27:40.824Z,101174.00
2022-09-06T23:30:08.286Z,101174.31
2022-09-06T23:32:35.722Z,101165.06
2022-09-06T23:35:02.393Z,101168.84
2022-09-06T23:37:29.098Z,101169.38
2022-09-06T23:39:55.891Z,101163.22
2022-09-06T23:42:23.176Z,101173.69
2022-09-06T23:44:54.404Z,101178.09
2022-09-06T23:47:21.197Z,101191.66
2022-09-06T23:49:50.894Z,101182.88
2022-09-06T23:52:18.313Z,101186.91
2022-09-06T23:54:45.017Z,101175.69
2022-09-06T23:57:11.796Z,101183.31
2022-09-06T23:59:38.856Z,101180.41
